Time,TemperatureF,DewpointF,PressureIn,WindDirection,WindDirectionDegrees,WindSpeedMPH,WindSpeedGustMPH,Humidity,HourlyPrecipIn,Conditions,Clouds,dailyrainin,SoftwareType,DateUTC
2013-02-18 00:08:00,48.7,-47.7,29.89,SE,135,7.8,-999.0,1,-99.99,,,0.00,Acu-Link.com,2013-02-18 06:08:00,
2013-02-18 00:23:00,48.7,-47.7,29.88,SE,135,4.2,-999.0,1,-99.99,,,0.00,Acu-Link.com,2013-02-18 06:23:00,
2013-02-18 00:38:00,48.9,-47.6,29.87,SSE,157,2.7,-999.0,1,-99.99,,,0.00,Acu-Link.com,2013-02-18 06:38:00,
2013-02-18 00:53:00,48.7,-47.7,29.87,South,180,4.7,-999.0,1,-99.99,,,0.00,Acu-Link.com,2013-02-18 06:53:00,
2013-02-18 01:09:00,48.9,-47.6,29.86,SE,135,6.8,-999.0,1,-99.99,,,0.00,Acu-Link.com,2013-02-18 07:09:00,
2013-02-18 01:24:00,49.1,-47.5,29.86,SE,135,5.3,-999.0,1,-99.99,,,0.00,Acu-Link.com,2013-02-18 07:24:00,
2013-02-18 01:39:00,49.1,-47.5,29.85,SE,135,5.3,-999.0,1,-99.99,,,0.00,Acu-Link.com,2013-02-18 07:39:00,
2013-02-18 01:54:00,49.5,-47.3,29.85,ESE,112,3.7,-999.0,1,-99.99,,,0.00,Acu-Link.com,2013-02-18 07:54:00,
2013-02-18 02:10:00,49.5,-47.3,29.85,SSE,157,6.8,-999.0,1,-99.99,,,0.00,Acu-Link.com,2013-02-18 08:10:00,
2013-02-18 02:25:00,49.8,-47.1,29.84,South,180,6.8,-999.0,1,-99.99,,,0.00,Acu-Link.com,2013-02-18 08:25:00,
2013-02-18 02:40:00,50.2,-46.8,29.83,SSE,157,4.7,-999.0,1,-99.99,,,0.00,Acu-Link.com,2013-02-18 08:40:00,
2013-02-18 02:56:00,51.3,-46.2,29.82,SSE,157,7.8,-999.0,1,-99.99,,,0.00,Acu-Link.com,2013-02-18 08:56:00,
2013-02-18 03:18:00,50.4,-46.7,29.82,ESE,112,7.8,-999.0,1,-99.99,,,0.00,Acu-Link.com,2013-02-18 09:18:00,
2013-02-18 03:33:00,51.3,-46.2,29.81,SE,135,7.8,-999.0,1,-99.99,,,0.00,Acu-Link.com,2013-02-18 09:33:00,
2013-02-18 03:49:00,51.3,-46.2,29.81,SE,135,5.3,-999.0,1,-99.99,,,0.00,Acu-Link.com,2013-02-18 09:49:00,
2013-02-18 04:04:00,51.1,-46.3,29.81,SE,135,6.3,-999.0,1,-99.99,,,0.00,Acu-Link.com,2013-02-18 10:04:00,
2013-02-18 04:19:00,51.3,-46.2,29.81,SE,135,6.8,-999.0,1,-99.99,,,0.00,Acu-Link.com,2013-02-18 10:19:00,
2013-02-18 04:34:00,51.3,-46.2,29.80,SE,135,4.7,-999.0,1,-99.99,,,0.00,Acu-Link.com,2013-02-18 10:34:00,
2013-02-18 04:49:00,51.6,-46.0,29.81,South,180,4.7,-999.0,1,-99.99,,,0.00,Acu-Link.com,2013-02-18 10:49:00,
2013-02-18 05:05:00,51.4,-46.1,29.81,SSE,157,7.8,-999.0,1,-99.99,,,0.00,Acu-Link.com,2013-02-18 11:05:00,
2013-02-18 05:20:00,51.8,-45.8,29.81,SSE,157,2.2,-999.0,1,-99.99,,,0.00,Acu-Link.com,2013-02-18 11:20:00,
2013-02-18 05:35:00,51.6,-46.0,29.81,East,90,3.7,-999.0,1,-99.99,,,0.00,Acu-Link.com,2013-02-18 11:35:00,
2013-02-18 05:50:00,50.5,-46.6,29.80,East,90,4.2,-999.0,1,-99.99,,,0.00,Acu-Link.com,2013-02-18 11:50:00,
2013-02-18 06:06:00,50.0,-46.9,29.80,East,90,4.2,-999.0,1,-99.99,,,0.00,Acu-Link.com,2013-02-18 12:06:00,
2013-02-18 06:21:00,50.0,-46.9,29.80,East,90,3.7,-999.0,1,-99.99,,,0.00,Acu-Link.com,2013-02-18 12:21:00,
2013-02-18 06:51:00,50.9,-46.4,29.80,East,90,4.7,-999.0,1,-99.99,,,0.00,Acu-Link.com,2013-02-18 12:51:00,
2013-02-18 07:07:00,51.8,-45.8,29.79,ESE,112,2.7,-999.0,1,-99.99,,,0.00,Acu-Link.com,2013-02-18 13:07:00,
2013-02-18 07:22:00,52.7,-45.3,29.79,East,90,2.7,-999.0,1,-99.99,,,0.00,Acu-Link.com,2013-02-18 13:22:00,
2013-02-18 07:37:00,53.4,-44.9,29.79,ESE,112,5.3,-999.0,1,-99.99,,,0.00,Acu-Link.com,2013-02-18 13:37:00,
2013-02-18 07:52:00,54.3,-44.3,29.80,SE,135,6.8,-999.0,1,-99.99,,,0.00,Acu-Link.com,2013-02-18 13:52:00,
2013-02-18 08:07:00,55.0,-43.9,29.80,ESE,112,3.7,-999.0,1,-99.99,,,0.00,Acu-Link.com,2013-02-18 14:07:00,
2013-02-18 08:22:00,55.9,-43.3,29.81,ESE,112,3.7,-999.0,1,-99.99,,,0.00,Acu-Link.com,2013-02-18 14:22:00,
2013-02-18 08:38:00,56.8,-42.8,29.82,East,90,6.3,-999.0,1,-99.99,,,0.00,Acu-Link.com,2013-02-18 14:38:00,
2013-02-18 08:53:00,57.9,-42.1,29.82,SSE,157,6.8,-999.0,1,-99.99,,,0.00,Acu-Link.com,2013-02-18 14:53:00,
2013-02-18 09:08:00,60.4,-40.6,29.81,East,90,7.3,-999.0,1,-99.99,,,0.00,Acu-Link.com,2013-02-18 15:08:00,
2013-02-18 09:24:00,62.1,-39.6,29.80,ESE,112,6.8,-999.0,1,-99.99,,,0.00,Acu-Link.com,2013-02-18 15:24:00,
2013-02-18 09:39:00,64.6,-38.1,29.79,SSE,157,6.3,-999.0,1,-99.99,,,0.00,Acu-Link.com,2013-02-18 15:39:00,
2013-02-18 09:54:00,64.6,-38.1,29.79,South,180,9.9,-999.0,1,-99.99,,,0.00,Acu-Link.com,2013-02-18 15:54:00,
2013-02-18 10:09:00,66.4,-37.0,29.79,SSE,157,9.4,-999.0,1,-99.99,,,0.00,Acu-Link.com,2013-02-18 16:09:00,
2013-02-18 10:24:00,66.0,-37.2,29.79,SSW,202,17.1,-999.0,1,-99.99,,,0.00,Acu-Link.com,2013-02-18 16:24:00,
2013-02-18 10:40:00,67.1,-36.6,29.79,SSE,157,12.5,-999.0,1,-99.99,,,0.00,Acu-Link.com,2013-02-18 16:40:00,
2013-02-18 10:55:00,68.2,-35.9,29.78,South,180,8.9,-999.0,1,-99.99,,,0.00,Acu-Link.com,2013-02-18 16:55:00,
2013-02-18 11:10:00,70.9,-34.3,29.77,SSE,157,10.4,-999.0,1,-99.99,,,0.00,Acu-Link.com,2013-02-18 17:10:00,
2013-02-18 11:26:00,70.7,-34.4,29.76,South,180,21.7,-999.0,1,-99.99,,,0.00,Acu-Link.com,2013-02-18 17:26:00,
2013-02-18 11:41:00,70.3,-34.6,29.76,SSE,157,15.5,-999.0,1,-99.99,,,0.00,Acu-Link.com,2013-02-18 17:41:00,
2013-02-18 11:56:00,69.8,-34.9,29.75,SE,135,8.9,-999.0,1,-99.99,,,0.00,Acu-Link.com,2013-02-18 17:56:00,
2013-02-18 12:11:00,68.7,-35.6,29.74,ESE,112,14.0,-999.0,1,-99.99,,,0.00,Acu-Link.com,2013-02-18 18:11:00,
2013-02-18 12:26:00,68.7,-35.6,29.73,SW,225,11.9,-999.0,1,-99.99,,,0.00,Acu-Link.com,2013-02-18 18:26:00,
2013-02-18 12:41:00,68.9,-35.5,29.71,South,180,14.0,-999.0,1,-99.99,,,0.00,Acu-Link.com,2013-02-18 18:41:00,
2013-02-18 12:56:00,69.1,-35.4,29.71,South,180,7.3,-999.0,1,-99.99,,,0.00,Acu-Link.com,2013-02-18 18:56:00,
2013-02-18 13:12:00,69.8,-34.9,29.70,SSW,202,11.9,-999.0,1,-99.99,,,0.00,Acu-Link.com,2013-02-18 19:12:00,
2013-02-18 13:27:00,68.7,-35.6,29.69,SSW,202,16.1,-999.0,1,-99.99,,,0.00,Acu-Link.com,2013-02-18 19:27:00,
2013-02-18 13:42:00,68.7,-35.6,29.68,SSE,157,15.0,-999.0,1,-99.99,,,0.00,Acu-Link.com,2013-02-18 19:42:00,
2013-02-18 13:58:00,68.0,-36.0,29.68,South,180,13.0,-999.0,1,-99.99,,,0.00,Acu-Link.com,2013-02-18 19:58:00,
2013-02-18 14:13:00,68.2,-35.9,29.68,SSE,157,13.5,-999.0,1,-99.99,,,0.00,Acu-Link.com,2013-02-18 20:13:00,
2013-02-18 14:28:00,68.4,-35.8,29.67,ESE,112,14.0,-999.0,1,-99.99,,,0.00,Acu-Link.com,2013-02-18 20:28:00,
2013-02-18 14:43:00,67.8,-36.1,29.67,South,180,4.2,-999.0,1,-99.99,,,0.00,Acu-Link.com,2013-02-18 20:43:00,
2013-02-18 15:14:00,66.9,-36.7,29.65,SSE,157,9.4,-999.0,1,-99.99,,,0.00,Acu-Link.com,2013-02-18 21:14:00,
2013-02-18 15:29:00,66.4,-37.0,29.65,SSE,157,17.6,-999.0,1,-99.99,,,0.00,Acu-Link.com,2013-02-18 21:29:00,
2013-02-18 15:44:00,66.4,-37.0,29.64,SSE,157,9.9,-999.0,1,-99.99,,,0.00,Acu-Link.com,2013-02-18 21:44:00,
2013-02-18 16:00:00,66.4,-37.0,29.64,South,180,18.6,-999.0,1,-99.99,,,0.00,Acu-Link.com,2013-02-18 22:00:00,
2013-02-18 16:15:00,66.6,-36.9,29.64,South,180,13.5,-999.0,1,-99.99,,,0.00,Acu-Link.com,2013-02-18 22:15:00,
2013-02-18 16:30:00,66.6,-36.9,29.63,SSE,157,9.4,-999.0,1,-99.99,,,0.00,Acu-Link.com,2013-02-18 22:30:00,
2013-02-18 16:46:00,68.2,-35.9,29.63,SSE,157,8.9,-999.0,1,-99.99,,,0.00,Acu-Link.com,2013-02-18 22:46:00,
2013-02-18 17:01:00,66.2,-37.1,29.63,South,180,6.8,-999.0,1,-99.99,,,0.00,Acu-Link.com,2013-02-18 23:01:00,
2013-02-18 17:16:00,66.4,-37.0,29.61,SSE,157,4.7,-999.0,1,-99.99,,,0.00,Acu-Link.com,2013-02-18 23:16:00,
2013-02-18 17:31:00,66.6,-36.9,29.62,SSE,157,7.3,-999.0,1,-99.99,,,0.00,Acu-Link.com,2013-02-18 23:31:00,
2013-02-18 17:47:00,66.6,-36.9,29.62,SSE,157,9.4,-999.0,1,-99.99,,,0.00,Acu-Link.com,2013-02-18 23:47:00,
2013-02-18 18:02:00,65.5,-37.5,29.62,South,180,13.5,-999.0,1,-99.99,,,0.00,Acu-Link.com,2013-02-19 00:02:00,
2013-02-18 18:17:00,65.1,-37.8,29.62,South,180,8.3,-999.0,1,-99.99,,,0.01,Acu-Link.com,2013-02-19 00:17:00,
2013-02-18 18:32:00,65.7,-37.4,29.61,South,180,9.9,-999.0,1,-99.99,,,0.01,Acu-Link.com,2013-02-19 00:32:00,
2013-02-18 18:47:00,65.7,-37.4,29.62,South,180,10.9,-999.0,1,-99.99,,,0.01,Acu-Link.com,2013-02-19 00:47:00,
2013-02-18 19:03:00,64.9,-37.9,29.62,South,180,9.9,-999.0,1,-99.99,,,0.01,Acu-Link.com,2013-02-19 01:03:00,
2013-02-18 19:18:00,64.8,-37.9,29.62,South,180,11.9,-999.0,1,-99.99,,,0.01,Acu-Link.com,2013-02-19 01:18:00,
2013-02-18 19:33:00,64.2,-38.3,29.62,SSE,157,16.6,-999.0,1,-99.99,,,0.01,Acu-Link.com,2013-02-19 01:33:00,
2013-02-18 19:48:00,63.5,-38.7,29.62,South,180,10.9,-999.0,1,-99.99,,,0.05,Acu-Link.com,2013-02-19 01:48:00,
2013-02-18 20:04:00,63.5,-38.7,29.61,South,180,8.9,-999.0,1,-99.99,,,0.14,Acu-Link.com,2013-02-19 02:04:00,
2013-02-18 20:19:00,63.5,-38.7,29.62,SSW,202,8.9,-999.0,1,-99.99,,,0.23,Acu-Link.com,2013-02-19 02:19:00,
2013-02-18 20:34:00,63.5,1.2,29.63,SSE,157,6.8,-999.0,8,-99.99,,,0.26,Acu-Link.com,2013-02-19 02:34:00,
2013-02-18 20:49:00,64.0,-38.4,29.63,SSE,157,6.3,-999.0,1,-99.99,,,0.28,Acu-Link.com,2013-02-19 02:49:00,
2013-02-18 21:19:00,64.4,-38.2,29.61,SSW,202,14.0,-999.0,1,-99.99,,,0.36,Acu-Link.com,2013-02-19 03:19:00,
2013-02-18 21:35:00,64.4,-38.2,29.61,SSW,202,7.3,-999.0,1,-99.99,,,0.36,Acu-Link.com,2013-02-19 03:35:00,
2013-02-18 21:50:00,64.8,-37.9,29.62,WSW,247,8.9,-999.0,1,-99.99,,,0.37,Acu-Link.com,2013-02-19 03:50:00,
2013-02-18 22:05:00,62.8,43.9,29.63,SW,225,13.5,-999.0,50,-99.99,,,0.46,Acu-Link.com,2013-02-19 04:05:00,
2013-02-18 22:20:00,64.2,-38.3,29.65,SW,225,11.4,-999.0,1,-99.99,,,1.01,Acu-Link.com,2013-02-19 04:20:00,
2013-02-18 22:35:00,64.6,-38.1,29.64,SW,225,6.3,-999.0,1,-99.99,,,1.01,Acu-Link.com,2013-02-19 04:35:00,
2013-02-18 22:50:00,64.8,-37.9,29.65,SW,225,5.3,-999.0,1,-99.99,,,1.01,Acu-Link.com,2013-02-19 04:50:00,
2013-02-18 23:06:00,64.8,-37.9,29.65,SSW,202,7.8,-999.0,1,-99.99,,,1.01,Acu-Link.com,2013-02-19 05:06:00,
2013-02-18 23:21:00,65.1,-37.8,29.66,SSW,202,5.8,-999.0,1,-99.99,,,1.01,Acu-Link.com,2013-02-19 05:21:00,
2013-02-18 23:36:00,64.8,-37.9,29.66,SW,225,5.8,-999.0,1,-99.99,,,1.01,Acu-Link.com,2013-02-19 05:36:00,
2013-02-18 23:52:00,65.1,-37.8,29.66,SW,225,4.7,-999.0,1,-99.99,,,1.01,Acu-Link.com,2013-02-19 05:52:00,